Terminal Aerodrome Forecast
Issued by NWS

Home | Current Version | Previous Version | Text Only | Print | Product List | Glossary On
Versions: 1 2 3 4 5 6 7 8 9 10 11 12
000
FTUS43 KJKL 150500
TAFSME
TAF
KSME 150537Z 1506/1606 00000KT P6SM SKC
     FM150700 00000KT 4SM BR SKC
     FM150900 00000KT 1/2SM FG BKN002
     FM151100 00000KT 2SM BR OVC100
     FM151400 25006KT P6SM FEW040 SCT100 BKN250
      AMD NOT SKED=

USA.gov is the U.S. government's official web portal to all federal, state and local government web resources and services.